sensor_id;sensor_type;location;lat;lon;timestamp;P1;durP1;ratioP1;P2;durP2;ratioP2
61590;SDS011;57639;52.410;-1.966;2022-11-18T00:01:05;2.58;;;0.63;;
61590;SDS011;57639;52.410;-1.966;2022-11-18T00:04:15;1.90;;;0.80;;
61590;SDS011;57639;52.410;-1.966;2022-11-18T00:07:22;1.10;;;0.52;;
61590;SDS011;57639;52.410;-1.966;2022-11-18T00:10:28;1.67;;;0.70;;
61590;SDS011;57639;52.410;-1.966;2022-11-18T00:13:34;0.90;;;0.60;;
61590;SDS011;57639;52.410;-1.966;2022-11-18T00:16:58;1.42;;;0.70;;
61590;SDS011;57639;52.410;-1.966;2022-11-18T00:20:09;1.40;;;0.70;;
61590;SDS011;57639;52.410;-1.966;2022-11-18T00:23:15;1.30;;;0.70;;
61590;SDS011;57639;52.410;-1.966;2022-11-18T00:26:21;1.13;;;0.60;;
61590;SDS011;57639;52.410;-1.966;2022-11-18T00:29:27;1.15;;;0.70;;
61590;SDS011;57639;52.410;-1.966;2022-11-18T00:32:33;1.98;;;0.80;;
61590;SDS011;57639;52.410;-1.966;2022-11-18T00:35:42;1.20;;;0.60;;
61590;SDS011;57639;52.410;-1.966;2022-11-18T00:38:48;1.42;;;0.70;;
61590;SDS011;57639;52.410;-1.966;2022-11-18T00:41:54;2.05;;;0.70;;
61590;SDS011;57639;52.410;-1.966;2022-11-18T00:45:15;2.58;;;0.75;;
61590;SDS011;57639;52.410;-1.966;2022-11-18T00:48:21;1.08;;;0.60;;
61590;SDS011;57639;52.410;-1.966;2022-11-18T00:51:30;1.50;;;0.70;;
61590;SDS011;57639;52.410;-1.966;2022-11-18T00:54:36;1.40;;;0.80;;
61590;SDS011;57639;52.410;-1.966;2022-11-18T00:57:42;2.13;;;0.90;;
61590;SDS011;57639;52.410;-1.966;2022-11-18T01:00:49;1.40;;;0.60;;
61590;SDS011;57639;52.410;-1.966;2022-11-18T01:03:56;1.25;;;0.70;;
61590;SDS011;57639;52.410;-1.966;2022-11-18T01:07:05;1.52;;;0.80;;
61590;SDS011;57639;52.410;-1.966;2022-11-18T01:10:11;1.00;;;0.75;;
61590;SDS011;57639;52.410;-1.966;2022-11-18T01:13:18;1.88;;;0.88;;
61590;SDS011;57639;52.410;-1.966;2022-11-18T01:16:23;2.75;;;0.82;;
61590;SDS011;57639;52.410;-1.966;2022-11-18T01:19:30;1.60;;;0.70;;
61590;SDS011;57639;52.410;-1.966;2022-11-18T01:22:40;1.42;;;0.77;;
61590;SDS011;57639;52.410;-1.966;2022-11-18T01:25:46;2.25;;;0.75;;
61590;SDS011;57639;52.410;-1.966;2022-11-18T01:28:54;1.30;;;0.70;;
61590;SDS011;57639;52.410;-1.966;2022-11-18T01:32:01;2.00;;;0.80;;
61590;SDS011;57639;52.410;-1.966;2022-11-18T01:35:05;1.17;;;0.60;;
61590;SDS011;57639;52.410;-1.966;2022-11-18T01:38:14;1.63;;;0.73;;
61590;SDS011;57639;52.410;-1.966;2022-11-18T01:41:21;1.23;;;0.77;;
61590;SDS011;57639;52.410;-1.966;2022-11-18T01:48:15;1.88;;;0.70;;
61590;SDS011;57639;52.410;-1.966;2022-11-18T01:51:25;1.60;;;0.80;;
61590;SDS011;57639;52.410;-1.966;2022-11-18T01:54:38;1.73;;;0.80;;
61590;SDS011;57639;52.410;-1.966;2022-11-18T01:57:49;1.92;;;0.80;;
61590;SDS011;57639;52.410;-1.966;2022-11-18T02:01:01;1.50;;;0.80;;
61590;SDS011;57639;52.410;-1.966;2022-11-18T02:04:07;1.10;;;0.60;;
61590;SDS011;57639;52.410;-1.966;2022-11-18T02:07:14;1.73;;;0.70;;
61590;SDS011;57639;52.410;-1.966;2022-11-18T02:10:24;1.23;;;0.80;;
61590;SDS011;57639;52.410;-1.966;2022-11-18T02:13:30;1.85;;;0.68;;
61590;SDS011;57639;52.410;-1.966;2022-11-18T02:16:40;2.08;;;0.90;;
61590;SDS011;57639;52.410;-1.966;2022-11-18T02:20:10;1.70;;;0.73;;
61590;SDS011;57639;52.410;-1.966;2022-11-18T02:23:36;1.23;;;0.73;;
61590;SDS011;57639;52.410;-1.966;2022-11-18T02:27:13;1.60;;;0.75;;
61590;SDS011;57639;52.410;-1.966;2022-11-18T02:30:47;1.15;;;0.70;;
61590;SDS011;57639;52.410;-1.966;2022-11-18T02:33:58;2.92;;;0.80;;
61590;SDS011;57639;52.410;-1.966;2022-11-18T02:37:12;1.50;;;0.88;;
61590;SDS011;57639;52.410;-1.966;2022-11-18T02:40:23;2.42;;;1.00;;
61590;SDS011;57639;52.410;-1.966;2022-11-18T02:43:33;2.28;;;0.80;;
61590;SDS011;57639;52.410;-1.966;2022-11-18T02:46:45;1.80;;;0.70;;
61590;SDS011;57639;52.410;-1.966;2022-11-18T02:49:56;0.98;;;0.70;;
61590;SDS011;57639;52.410;-1.966;2022-11-18T02:53:05;1.80;;;0.70;;
61590;SDS011;57639;52.410;-1.966;2022-11-18T02:56:15;1.83;;;0.70;;
61590;SDS011;57639;52.410;-1.966;2022-11-18T02:59:24;2.60;;;0.80;;
61590;SDS011;57639;52.410;-1.966;2022-11-18T03:02:41;1.45;;;0.60;;
61590;SDS011;57639;52.410;-1.966;2022-11-18T03:05:51;1.63;;;0.80;;
61590;SDS011;57639;52.410;-1.966;2022-11-18T03:09:06;1.73;;;0.80;;
61590;SDS011;57639;52.410;-1.966;2022-11-18T03:12:18;1.90;;;0.75;;
61590;SDS011;57639;52.410;-1.966;2022-11-18T03:15:33;1.10;;;0.70;;
61590;SDS011;57639;52.410;-1.966;2022-11-18T03:18:49;1.48;;;0.70;;
61590;SDS011;57639;52.410;-1.966;2022-11-18T03:22:04;1.90;;;0.75;;
61590;SDS011;57639;52.410;-1.966;2022-11-18T03:25:18;1.27;;;0.60;;
61590;SDS011;57639;52.410;-1.966;2022-11-18T03:28:28;1.90;;;0.80;;
61590;SDS011;57639;52.410;-1.966;2022-11-18T03:31:39;1.67;;;0.70;;
61590;SDS011;57639;52.410;-1.966;2022-11-18T03:34:50;1.37;;;0.63;;
61590;SDS011;57639;52.410;-1.966;2022-11-18T03:38:02;1.67;;;0.77;;
61590;SDS011;57639;52.410;-1.966;2022-11-18T03:41:13;1.60;;;0.70;;
61590;SDS011;57639;52.410;-1.966;2022-11-18T03:44:22;1.15;;;0.77;;
61590;SDS011;57639;52.410;-1.966;2022-11-18T03:47:33;1.30;;;0.65;;
61590;SDS011;57639;52.410;-1.966;2022-11-18T03:50:47;1.15;;;0.63;;
61590;SDS011;57639;52.410;-1.966;2022-11-18T03:54:05;2.40;;;0.73;;
61590;SDS011;57639;52.410;-1.966;2022-11-18T03:57:18;1.77;;;0.80;;
61590;SDS011;57639;52.410;-1.966;2022-11-18T04:00:29;2.15;;;0.63;;
61590;SDS011;57639;52.410;-1.966;2022-11-18T04:03:52;1.48;;;0.77;;
61590;SDS011;57639;52.410;-1.966;2022-11-18T04:07:02;1.77;;;0.80;;
61590;SDS011;57639;52.410;-1.966;2022-11-18T04:10:16;2.25;;;0.55;;
61590;SDS011;57639;52.410;-1.966;2022-11-18T04:13:23;1.48;;;0.50;;
61590;SDS011;57639;52.410;-1.966;2022-11-18T04:16:37;2.05;;;0.90;;
61590;SDS011;57639;52.410;-1.966;2022-11-18T04:19:44;1.45;;;0.70;;
61590;SDS011;57639;52.410;-1.966;2022-11-18T04:23:05;1.17;;;0.70;;
61590;SDS011;57639;52.410;-1.966;2022-11-18T04:26:12;2.00;;;0.60;;
61590;SDS011;57639;52.410;-1.966;2022-11-18T04:29:19;1.10;;;0.50;;
61590;SDS011;57639;52.410;-1.966;2022-11-18T04:32:27;1.65;;;0.80;;
61590;SDS011;57639;52.410;-1.966;2022-11-18T04:35:33;1.50;;;0.70;;
61590;SDS011;57639;52.410;-1.966;2022-11-18T04:38:42;1.52;;;0.70;;
61590;SDS011;57639;52.410;-1.966;2022-11-18T04:41:48;1.75;;;0.70;;
61590;SDS011;57639;52.410;-1.966;2022-11-18T04:45:00;1.13;;;0.60;;
61590;SDS011;57639;52.410;-1.966;2022-11-18T04:48:06;1.15;;;0.57;;
61590;SDS011;57639;52.410;-1.966;2022-11-18T04:51:12;1.85;;;0.70;;
61590;SDS011;57639;52.410;-1.966;2022-11-18T04:54:21;1.35;;;0.60;;
61590;SDS011;57639;52.410;-1.966;2022-11-18T04:57:27;1.83;;;0.88;;
61590;SDS011;57639;52.410;-1.966;2022-11-18T05:00:33;1.83;;;0.60;;
61590;SDS011;57639;52.410;-1.966;2022-11-18T05:03:39;2.22;;;0.63;;
61590;SDS011;57639;52.410;-1.966;2022-11-18T05:06:45;1.27;;;0.50;;
61590;SDS011;57639;52.410;-1.966;2022-11-18T05:09:55;1.50;;;0.60;;
61590;SDS011;57639;52.410;-1.966;2022-11-18T05:13:01;1.52;;;0.60;;
61590;SDS011;57639;52.410;-1.966;2022-11-18T05:16:04;1.35;;;0.60;;
61590;SDS011;57639;52.410;-1.966;2022-11-18T05:19:10;0.85;;;0.50;;
61590;SDS011;57639;52.410;-1.966;2022-11-18T05:22:16;1.63;;;0.73;;
61590;SDS011;57639;52.410;-1.966;2022-11-18T05:25:25;1.40;;;0.57;;
61590;SDS011;57639;52.410;-1.966;2022-11-18T05:28:31;1.92;;;0.70;;
61590;SDS011;57639;52.410;-1.966;2022-11-18T05:31:37;1.85;;;0.80;;
61590;SDS011;57639;52.410;-1.966;2022-11-18T05:34:43;1.55;;;0.70;;
61590;SDS011;57639;52.410;-1.966;2022-11-18T05:37:49;1.88;;;0.70;;
61590;SDS011;57639;52.410;-1.966;2022-11-18T05:40:58;1.05;;;0.60;;
61590;SDS011;57639;52.410;-1.966;2022-11-18T05:44:04;0.98;;;0.60;;
61590;SDS011;57639;52.410;-1.966;2022-11-18T05:47:07;1.25;;;0.65;;
61590;SDS011;57639;52.410;-1.966;2022-11-18T05:50:13;1.30;;;0.60;;
61590;SDS011;57639;52.410;-1.966;2022-11-18T05:53:21;0.90;;;0.60;;
61590;SDS011;57639;52.410;-1.966;2022-11-18T05:56:32;1.45;;;0.73;;
61590;SDS011;57639;52.410;-1.966;2022-11-18T05:59:41;1.15;;;0.63;;
61590;SDS011;57639;52.410;-1.966;2022-11-18T06:02:47;1.48;;;0.70;;
61590;SDS011;57639;52.410;-1.966;2022-11-18T06:05:56;1.65;;;0.63;;
61590;SDS011;57639;52.410;-1.966;2022-11-18T06:09:05;1.77;;;0.80;;
61590;SDS011;57639;52.410;-1.966;2022-11-18T06:12:15;1.75;;;0.60;;
61590;SDS011;57639;52.410;-1.966;2022-11-18T06:15:26;1.23;;;0.60;;
61590;SDS011;57639;52.410;-1.966;2022-11-18T06:18:37;1.70;;;0.80;;
61590;SDS011;57639;52.410;-1.966;2022-11-18T06:21:43;0.82;;;0.60;;
61590;SDS011;57639;52.410;-1.966;2022-11-18T06:24:49;1.42;;;0.55;;
61590;SDS011;57639;52.410;-1.966;2022-11-18T06:27:59;1.70;;;0.60;;
61590;SDS011;57639;52.410;-1.966;2022-11-18T06:31:06;2.13;;;0.80;;
61590;SDS011;57639;52.410;-1.966;2022-11-18T06:34:12;2.15;;;0.60;;
61590;SDS011;57639;52.410;-1.966;2022-11-18T06:37:18;1.40;;;0.70;;
61590;SDS011;57639;52.410;-1.966;2022-11-18T06:40:24;2.10;;;0.60;;
61590;SDS011;57639;52.410;-1.966;2022-11-18T06:43:33;2.00;;;0.75;;
61590;SDS011;57639;52.410;-1.966;2022-11-18T06:46:48;0.98;;;0.60;;
61590;SDS011;57639;52.410;-1.966;2022-11-18T06:50:00;1.77;;;0.70;;
61590;SDS011;57639;52.410;-1.966;2022-11-18T06:53:06;1.42;;;0.60;;
61590;SDS011;57639;52.410;-1.966;2022-11-18T06:56:13;1.63;;;0.70;;
61590;SDS011;57639;52.410;-1.966;2022-11-18T06:59:23;1.83;;;0.80;;
61590;SDS011;57639;52.410;-1.966;2022-11-18T07:02:29;1.40;;;0.68;;
61590;SDS011;57639;52.410;-1.966;2022-11-18T07:05:35;1.20;;;0.63;;
61590;SDS011;57639;52.410;-1.966;2022-11-18T07:08:41;1.58;;;0.60;;
61590;SDS011;57639;52.410;-1.966;2022-11-18T07:11:47;1.05;;;0.60;;
61590;SDS011;57639;52.410;-1.966;2022-11-18T07:14:56;0.60;;;0.50;;
61590;SDS011;57639;52.410;-1.966;2022-11-18T07:18:02;1.42;;;0.80;;
61590;SDS011;57639;52.410;-1.966;2022-11-18T07:21:09;1.17;;;0.63;;
61590;SDS011;57639;52.410;-1.966;2022-11-18T07:24:16;1.67;;;0.50;;
61590;SDS011;57639;52.410;-1.966;2022-11-18T07:27:22;1.45;;;0.60;;
61590;SDS011;57639;52.410;-1.966;2022-11-18T07:30:31;1.13;;;0.50;;
61590;SDS011;57639;52.410;-1.966;2022-11-18T07:33:37;1.60;;;0.75;;
61590;SDS011;57639;52.410;-1.966;2022-11-18T07:36:45;1.25;;;0.63;;
61590;SDS011;57639;52.410;-1.966;2022-11-18T07:39:51;1.58;;;0.60;;
61590;SDS011;57639;52.410;-1.966;2022-11-18T07:42:57;1.17;;;0.50;;
61590;SDS011;57639;52.410;-1.966;2022-11-18T07:46:13;1.38;;;0.65;;
61590;SDS011;57639;52.410;-1.966;2022-11-18T07:49:18;1.23;;;0.60;;
61590;SDS011;57639;52.410;-1.966;2022-11-18T07:52:24;2.50;;;0.82;;
61590;SDS011;57639;52.410;-1.966;2022-11-18T07:55:30;1.33;;;0.60;;
61590;SDS011;57639;52.410;-1.966;2022-11-18T07:58:36;2.50;;;0.70;;
61590;SDS011;57639;52.410;-1.966;2022-11-18T08:01:45;1.95;;;0.70;;
61590;SDS011;57639;52.410;-1.966;2022-11-18T08:04:51;1.70;;;0.77;;
61590;SDS011;57639;52.410;-1.966;2022-11-18T08:07:57;2.88;;;0.70;;
61590;SDS011;57639;52.410;-1.966;2022-11-18T08:11:04;0.90;;;0.60;;
61590;SDS011;57639;52.410;-1.966;2022-11-18T08:14:11;1.75;;;0.77;;
61590;SDS011;57639;52.410;-1.966;2022-11-18T08:17:20;3.25;;;0.80;;
61590;SDS011;57639;52.410;-1.966;2022-11-18T08:20:26;2.15;;;0.73;;
61590;SDS011;57639;52.410;-1.966;2022-11-18T08:23:32;3.35;;;0.77;;
61590;SDS011;57639;52.410;-1.966;2022-11-18T08:26:38;1.00;;;0.70;;
61590;SDS011;57639;52.410;-1.966;2022-11-18T08:29:44;1.73;;;0.68;;
61590;SDS011;57639;52.410;-1.966;2022-11-18T08:32:53;2.30;;;0.60;;
61590;SDS011;57639;52.410;-1.966;2022-11-18T08:36:01;1.63;;;0.68;;
61590;SDS011;57639;52.410;-1.966;2022-11-18T08:39:10;2.63;;;0.77;;
61590;SDS011;57639;52.410;-1.966;2022-11-18T08:42:17;2.13;;;0.80;;
61590;SDS011;57639;52.410;-1.966;2022-11-18T08:45:24;1.67;;;0.73;;
61590;SDS011;57639;52.410;-1.966;2022-11-18T08:48:32;1.88;;;0.75;;
61590;SDS011;57639;52.410;-1.966;2022-11-18T08:51:38;1.65;;;0.65;;
61590;SDS011;57639;52.410;-1.966;2022-11-18T08:54:44;3.80;;;0.70;;
61590;SDS011;57639;52.410;-1.966;2022-11-18T08:57:50;1.77;;;0.70;;
61590;SDS011;57639;52.410;-1.966;2022-11-18T09:00:56;1.75;;;0.80;;
61590;SDS011;57639;52.410;-1.966;2022-11-18T09:04:05;1.92;;;0.60;;
61590;SDS011;57639;52.410;-1.966;2022-11-18T09:07:11;1.85;;;0.60;;
61590;SDS011;57639;52.410;-1.966;2022-11-18T09:10:17;1.48;;;0.70;;
61590;SDS011;57639;52.410;-1.966;2022-11-18T09:13:23;1.20;;;0.80;;
61590;SDS011;57639;52.410;-1.966;2022-11-18T09:16:30;1.35;;;0.70;;
61590;SDS011;57639;52.410;-1.966;2022-11-18T09:19:40;2.13;;;0.80;;
61590;SDS011;57639;52.410;-1.966;2022-11-18T09:22:46;1.58;;;0.68;;
61590;SDS011;57639;52.410;-1.966;2022-11-18T09:25:55;2.25;;;0.75;;
61590;SDS011;57639;52.410;-1.966;2022-11-18T09:29:02;1.45;;;0.82;;
61590;SDS011;57639;52.410;-1.966;2022-11-18T09:32:09;1.52;;;0.77;;
61590;SDS011;57639;52.410;-1.966;2022-11-18T09:35:18;1.33;;;0.70;;
61590;SDS011;57639;52.410;-1.966;2022-11-18T09:38:24;1.23;;;0.70;;
61590;SDS011;57639;52.410;-1.966;2022-11-18T09:41:39;1.70;;;0.80;;
61590;SDS011;57639;52.410;-1.966;2022-11-18T09:48:22;2.72;;;1.05;;
61590;SDS011;57639;52.410;-1.966;2022-11-18T09:51:52;2.83;;;0.93;;
61590;SDS011;57639;52.410;-1.966;2022-11-18T09:54:59;2.67;;;1.00;;
61590;SDS011;57639;52.410;-1.966;2022-11-18T09:58:05;2.60;;;0.95;;
61590;SDS011;57639;52.410;-1.966;2022-11-18T10:01:12;1.98;;;0.80;;
61590;SDS011;57639;52.410;-1.966;2022-11-18T10:04:22;2.83;;;0.85;;
61590;SDS011;57639;52.410;-1.966;2022-11-18T10:07:34;2.40;;;0.77;;
61590;SDS011;57639;52.410;-1.966;2022-11-18T10:10:48;1.95;;;0.98;;
61590;SDS011;57639;52.410;-1.966;2022-11-18T10:14:14;1.40;;;0.70;;
61590;SDS011;57639;52.410;-1.966;2022-11-18T10:17:32;3.20;;;0.83;;
61590;SDS011;57639;52.410;-1.966;2022-11-18T10:20:50;2.08;;;0.88;;
61590;SDS011;57639;52.410;-1.966;2022-11-18T10:24:06;2.13;;;0.80;;
61590;SDS011;57639;52.410;-1.966;2022-11-18T10:27:16;1.40;;;1.00;;
61590;SDS011;57639;52.410;-1.966;2022-11-18T10:30:23;4.43;;;0.80;;
61590;SDS011;57639;52.410;-1.966;2022-11-18T10:33:30;5.80;;;0.93;;
61590;SDS011;57639;52.410;-1.966;2022-11-18T10:36:36;1.73;;;0.65;;
61590;SDS011;57639;52.410;-1.966;2022-11-18T10:39:51;1.67;;;0.80;;
61590;SDS011;57639;52.410;-1.966;2022-11-18T10:42:58;1.65;;;0.80;;
61590;SDS011;57639;52.410;-1.966;2022-11-18T10:46:13;1.10;;;0.65;;
61590;SDS011;57639;52.410;-1.966;2022-11-18T10:49:21;3.08;;;0.70;;
61590;SDS011;57639;52.410;-1.966;2022-11-18T10:52:27;2.03;;;0.80;;
61590;SDS011;57639;52.410;-1.966;2022-11-18T10:55:37;2.53;;;0.70;;
61590;SDS011;57639;52.410;-1.966;2022-11-18T10:58:44;2.03;;;0.70;;
61590;SDS011;57639;52.410;-1.966;2022-11-18T11:01:57;2.78;;;0.70;;
61590;SDS011;57639;52.410;-1.966;2022-11-18T11:05:14;2.25;;;0.63;;
61590;SDS011;57639;52.410;-1.966;2022-11-18T11:08:22;2.95;;;0.80;;
61590;SDS011;57639;52.410;-1.966;2022-11-18T11:11:32;2.55;;;0.82;;
61590;SDS011;57639;52.410;-1.966;2022-11-18T11:14:43;3.58;;;0.88;;
61590;SDS011;57639;52.410;-1.966;2022-11-18T11:17:56;1.00;;;0.70;;
61590;SDS011;57639;52.410;-1.966;2022-11-18T11:21:20;2.88;;;0.80;;
61590;SDS011;57639;52.410;-1.966;2022-11-18T11:24:29;1.20;;;0.70;;
61590;SDS011;57639;52.410;-1.966;2022-11-18T11:27:40;2.25;;;0.75;;
61590;SDS011;57639;52.410;-1.966;2022-11-18T11:30:52;1.98;;;0.82;;
61590;SDS011;57639;52.410;-1.966;2022-11-18T11:34:10;1.70;;;0.68;;
61590;SDS011;57639;52.410;-1.966;2022-11-18T11:40:28;1.13;;;0.63;;
61590;SDS011;57639;52.410;-1.966;2022-11-18T11:43:45;3.00;;;0.90;;
61590;SDS011;57639;52.410;-1.966;2022-11-18T11:47:02;1.40;;;0.70;;
61590;SDS011;57639;52.410;-1.966;2022-11-18T11:50:34;2.05;;;0.70;;
61590;SDS011;57639;52.410;-1.966;2022-11-18T11:54:13;1.70;;;0.60;;
61590;SDS011;57639;52.410;-1.966;2022-11-18T11:57:37;2.25;;;0.63;;
61590;SDS011;57639;52.410;-1.966;2022-11-18T12:00:56;1.88;;;0.60;;
61590;SDS011;57639;52.410;-1.966;2022-11-18T12:04:13;1.63;;;0.60;;
61590;SDS011;57639;52.410;-1.966;2022-11-18T12:07:28;1.73;;;0.63;;
61590;SDS011;57639;52.410;-1.966;2022-11-18T12:17:03;1.40;;;0.60;;
61590;SDS011;57639;52.410;-1.966;2022-11-18T12:20:35;2.28;;;0.60;;
61590;SDS011;57639;52.410;-1.966;2022-11-18T12:23:42;2.15;;;0.70;;
61590;SDS011;57639;52.410;-1.966;2022-11-18T12:34:40;4.43;;;0.70;;
61590;SDS011;57639;52.410;-1.966;2022-11-18T12:37:57;2.60;;;0.60;;
61590;SDS011;57639;52.410;-1.966;2022-11-18T12:41:17;3.45;;;0.90;;
61590;SDS011;57639;52.410;-1.966;2022-11-18T12:52:50;4.07;;;0.90;;
61590;SDS011;57639;52.410;-1.966;2022-11-18T12:55:58;4.60;;;1.05;;
61590;SDS011;57639;52.410;-1.966;2022-11-18T12:59:02;3.85;;;0.90;;
61590;SDS011;57639;52.410;-1.966;2022-11-18T13:02:19;3.22;;;0.90;;
61590;SDS011;57639;52.410;-1.966;2022-11-18T13:05:26;6.50;;;1.30;;
61590;SDS011;57639;52.410;-1.966;2022-11-18T13:08:36;2.92;;;1.13;;
61590;SDS011;57639;52.410;-1.966;2022-11-18T13:11:44;1.50;;;0.82;;
61590;SDS011;57639;52.410;-1.966;2022-11-18T13:14:54;2.85;;;0.95;;
61590;SDS011;57639;52.410;-1.966;2022-11-18T13:18:16;5.35;;;1.30;;
61590;SDS011;57639;52.410;-1.966;2022-11-18T13:21:24;4.65;;;0.93;;
61590;SDS011;57639;52.410;-1.966;2022-11-18T13:24:49;5.57;;;1.48;;
61590;SDS011;57639;52.410;-1.966;2022-11-18T13:27:58;4.85;;;1.17;;
61590;SDS011;57639;52.410;-1.966;2022-11-18T13:31:26;4.55;;;1.13;;
61590;SDS011;57639;52.410;-1.966;2022-11-18T13:34:40;4.85;;;1.20;;
61590;SDS011;57639;52.410;-1.966;2022-11-18T13:37:57;3.55;;;1.00;;
61590;SDS011;57639;52.410;-1.966;2022-11-18T13:41:18;4.47;;;1.30;;
61590;SDS011;57639;52.410;-1.966;2022-11-18T13:44:24;4.57;;;0.98;;
61590;SDS011;57639;52.410;-1.966;2022-11-18T13:47:33;5.07;;;1.05;;
61590;SDS011;57639;52.410;-1.966;2022-11-18T13:50:43;4.18;;;1.10;;
61590;SDS011;57639;52.410;-1.966;2022-11-18T13:54:14;3.95;;;1.00;;
61590;SDS011;57639;52.410;-1.966;2022-11-18T13:57:25;3.72;;;1.08;;
61590;SDS011;57639;52.410;-1.966;2022-11-18T14:00:34;6.03;;;1.20;;
61590;SDS011;57639;52.410;-1.966;2022-11-18T14:03:40;6.38;;;1.08;;
61590;SDS011;57639;52.410;-1.966;2022-11-18T14:07:03;4.03;;;1.25;;
61590;SDS011;57639;52.410;-1.966;2022-11-18T14:10:18;3.35;;;1.20;;
61590;SDS011;57639;52.410;-1.966;2022-11-18T14:13:47;3.25;;;0.77;;
61590;SDS011;57639;52.410;-1.966;2022-11-18T14:17:02;2.25;;;0.63;;
61590;SDS011;57639;52.410;-1.966;2022-11-18T14:20:18;2.38;;;0.80;;
61590;SDS011;57639;52.410;-1.966;2022-11-18T14:23:26;3.45;;;0.80;;
61590;SDS011;57639;52.410;-1.966;2022-11-18T14:26:34;7.88;;;1.08;;
61590;SDS011;57639;52.410;-1.966;2022-11-18T14:29:50;4.40;;;0.88;;
61590;SDS011;57639;52.410;-1.966;2022-11-18T14:33:13;3.47;;;0.77;;
61590;SDS011;57639;52.410;-1.966;2022-11-18T14:36:19;2.13;;;0.60;;
61590;SDS011;57639;52.410;-1.966;2022-11-18T14:39:26;5.10;;;0.90;;
61590;SDS011;57639;52.410;-1.966;2022-11-18T14:42:32;3.78;;;0.70;;
61590;SDS011;57639;52.410;-1.966;2022-11-18T14:45:41;3.42;;;1.08;;
61590;SDS011;57639;52.410;-1.966;2022-11-18T14:48:45;4.53;;;0.82;;
61590;SDS011;57639;52.410;-1.966;2022-11-18T14:51:51;2.63;;;0.80;;
61590;SDS011;57639;52.410;-1.966;2022-11-18T14:54:56;3.90;;;0.80;;
61590;SDS011;57639;52.410;-1.966;2022-11-18T14:58:02;2.55;;;0.63;;
61590;SDS011;57639;52.410;-1.966;2022-11-18T15:01:11;3.28;;;0.80;;
61590;SDS011;57639;52.410;-1.966;2022-11-18T15:04:17;3.28;;;0.80;;
61590;SDS011;57639;52.410;-1.966;2022-11-18T15:07:22;3.47;;;0.80;;
61590;SDS011;57639;52.410;-1.966;2022-11-18T15:10:29;2.72;;;0.80;;
61590;SDS011;57639;52.410;-1.966;2022-11-18T15:13:33;5.28;;;0.80;;
61590;SDS011;57639;52.410;-1.966;2022-11-18T15:16:42;5.28;;;1.00;;
61590;SDS011;57639;52.410;-1.966;2022-11-18T15:19:46;4.00;;;0.82;;
61590;SDS011;57639;52.410;-1.966;2022-11-18T15:22:54;4.80;;;0.70;;
61590;SDS011;57639;52.410;-1.966;2022-11-18T15:25:58;6.63;;;0.80;;
61590;SDS011;57639;52.410;-1.966;2022-11-18T15:29:04;6.45;;;1.10;;
61590;SDS011;57639;52.410;-1.966;2022-11-18T15:32:19;3.17;;;0.80;;
61590;SDS011;57639;52.410;-1.966;2022-11-18T15:35:26;4.28;;;0.88;;
61590;SDS011;57639;52.410;-1.966;2022-11-18T15:38:30;2.92;;;1.00;;
61590;SDS011;57639;52.410;-1.966;2022-11-18T15:41:38;2.78;;;0.80;;
61590;SDS011;57639;52.410;-1.966;2022-11-18T15:44:45;5.32;;;0.90;;
61590;SDS011;57639;52.410;-1.966;2022-11-18T15:47:54;2.22;;;1.00;;
61590;SDS011;57639;52.410;-1.966;2022-11-18T15:54:07;2.65;;;0.68;;
61590;SDS011;57639;52.410;-1.966;2022-11-18T15:57:12;2.40;;;0.60;;
61590;SDS011;57639;52.410;-1.966;2022-11-18T16:00:18;4.18;;;0.95;;
61590;SDS011;57639;52.410;-1.966;2022-11-18T16:03:25;2.88;;;0.80;;
61590;SDS011;57639;52.410;-1.966;2022-11-18T16:06:33;2.65;;;0.60;;
61590;SDS011;57639;52.410;-1.966;2022-11-18T16:09:42;2.38;;;0.80;;
61590;SDS011;57639;52.410;-1.966;2022-11-18T16:13:04;3.35;;;0.75;;
61590;SDS011;57639;52.410;-1.966;2022-11-18T16:16:16;2.17;;;0.70;;
61590;SDS011;57639;52.410;-1.966;2022-11-18T16:19:28;2.78;;;0.75;;
61590;SDS011;57639;52.410;-1.966;2022-11-18T16:22:32;1.65;;;0.63;;
61590;SDS011;57639;52.410;-1.966;2022-11-18T16:25:42;3.53;;;0.68;;
61590;SDS011;57639;52.410;-1.966;2022-11-18T16:28:46;4.35;;;0.75;;
61590;SDS011;57639;52.410;-1.966;2022-11-18T16:31:52;1.67;;;0.60;;
61590;SDS011;57639;52.410;-1.966;2022-11-18T16:35:02;2.53;;;0.40;;
61590;SDS011;57639;52.410;-1.966;2022-11-18T16:38:08;3.88;;;0.93;;
61590;SDS011;57639;52.410;-1.966;2022-11-18T16:41:12;3.30;;;0.80;;
61590;SDS011;57639;52.410;-1.966;2022-11-18T16:44:30;1.88;;;0.70;;
61590;SDS011;57639;52.410;-1.966;2022-11-18T16:47:37;3.70;;;1.08;;
61590;SDS011;57639;52.410;-1.966;2022-11-18T16:50:47;2.60;;;0.70;;
61590;SDS011;57639;52.410;-1.966;2022-11-18T16:54:03;1.85;;;0.63;;
61590;SDS011;57639;52.410;-1.966;2022-11-18T16:57:12;2.05;;;0.70;;
61590;SDS011;57639;52.410;-1.966;2022-11-18T17:00:31;2.97;;;0.70;;
61590;SDS011;57639;52.410;-1.966;2022-11-18T17:03:39;2.20;;;0.63;;
61590;SDS011;57639;52.410;-1.966;2022-11-18T17:06:50;2.13;;;0.40;;
61590;SDS011;57639;52.410;-1.966;2022-11-18T17:09:57;2.58;;;0.60;;
61590;SDS011;57639;52.410;-1.966;2022-11-18T17:13:01;1.83;;;0.50;;
61590;SDS011;57639;52.410;-1.966;2022-11-18T17:16:11;2.25;;;0.82;;
61590;SDS011;57639;52.410;-1.966;2022-11-18T17:19:16;2.63;;;0.63;;
61590;SDS011;57639;52.410;-1.966;2022-11-18T17:22:26;2.58;;;0.50;;
61590;SDS011;57639;52.410;-1.966;2022-11-18T17:25:36;2.45;;;0.70;;
61590;SDS011;57639;52.410;-1.966;2022-11-18T17:28:42;1.02;;;0.50;;
61590;SDS011;57639;52.410;-1.966;2022-11-18T17:31:48;3.20;;;0.68;;
61590;SDS011;57639;52.410;-1.966;2022-11-18T17:34:57;2.53;;;0.65;;
61590;SDS011;57639;52.410;-1.966;2022-11-18T17:38:03;1.73;;;0.60;;
61590;SDS011;57639;52.410;-1.966;2022-11-18T17:41:14;2.10;;;0.80;;
61590;SDS011;57639;52.410;-1.966;2022-11-18T17:44:34;4.65;;;1.00;;
61590;SDS011;57639;52.410;-1.966;2022-11-18T17:47:44;3.20;;;0.82;;
61590;SDS011;57639;52.410;-1.966;2022-11-18T17:50:51;2.63;;;0.80;;
61590;SDS011;57639;52.410;-1.966;2022-11-18T17:54:00;1.65;;;0.70;;
61590;SDS011;57639;52.410;-1.966;2022-11-18T17:57:10;3.35;;;0.80;;
61590;SDS011;57639;52.410;-1.966;2022-11-18T18:00:16;2.70;;;0.90;;
61590;SDS011;57639;52.410;-1.966;2022-11-18T18:03:21;1.98;;;0.77;;
61590;SDS011;57639;52.410;-1.966;2022-11-18T18:06:28;1.88;;;0.82;;
61590;SDS011;57639;52.410;-1.966;2022-11-18T18:09:36;2.80;;;0.90;;
61590;SDS011;57639;52.410;-1.966;2022-11-18T18:12:43;2.33;;;0.85;;
61590;SDS011;57639;52.410;-1.966;2022-11-18T18:16:02;2.05;;;0.88;;
61590;SDS011;57639;52.410;-1.966;2022-11-18T18:19:10;2.20;;;1.00;;
61590;SDS011;57639;52.410;-1.966;2022-11-18T18:22:16;2.78;;;0.98;;
61590;SDS011;57639;52.410;-1.966;2022-11-18T18:25:25;2.45;;;0.80;;
61590;SDS011;57639;52.410;-1.966;2022-11-18T18:28:29;1.65;;;0.90;;
61590;SDS011;57639;52.410;-1.966;2022-11-18T18:31:36;2.45;;;0.90;;
61590;SDS011;57639;52.410;-1.966;2022-11-18T18:34:40;2.80;;;1.10;;
61590;SDS011;57639;52.410;-1.966;2022-11-18T18:37:46;3.15;;;1.00;;
61590;SDS011;57639;52.410;-1.966;2022-11-18T18:40:53;3.92;;;1.20;;
61590;SDS011;57639;52.410;-1.966;2022-11-18T18:44:00;2.75;;;0.82;;
61590;SDS011;57639;52.410;-1.966;2022-11-18T18:47:07;2.20;;;1.02;;
61590;SDS011;57639;52.410;-1.966;2022-11-18T18:50:18;2.50;;;1.00;;
61590;SDS011;57639;52.410;-1.966;2022-11-18T18:53:22;3.28;;;1.10;;
61590;SDS011;57639;52.410;-1.966;2022-11-18T19:00:12;1.95;;;0.95;;
61590;SDS011;57639;52.410;-1.966;2022-11-18T19:03:19;3.55;;;1.20;;
61590;SDS011;57639;52.410;-1.966;2022-11-18T19:06:23;2.83;;;0.95;;
61590;SDS011;57639;52.410;-1.966;2022-11-18T19:09:33;2.78;;;0.82;;
61590;SDS011;57639;52.410;-1.966;2022-11-18T19:12:43;2.78;;;1.10;;
61590;SDS011;57639;52.410;-1.966;2022-11-18T19:16:03;3.20;;;1.00;;
61590;SDS011;57639;52.410;-1.966;2022-11-18T19:19:08;3.58;;;1.13;;
61590;SDS011;57639;52.410;-1.966;2022-11-18T19:22:17;2.33;;;1.00;;
61590;SDS011;57639;52.410;-1.966;2022-11-18T19:25:23;3.05;;;1.20;;